sensor_id;sensor_type;location;lat;lon;timestamp;pressure;altitude;pressure_sealevel;temperature;humidity
46045;BME280;31781;54.094;13.428;2023-05-20T00:00:23;102964.31;;;12.09;63.31
46045;BME280;31781;54.094;13.428;2023-05-20T00:02:24;102958.00;;;12.08;63.58
46045;BME280;31781;54.094;13.428;2023-05-20T00:04:26;102959.03;;;12.07;63.41
46045;BME280;31781;54.094;13.428;2023-05-20T00:06:28;102956.31;;;12.07;63.34
46045;BME280;31781;54.094;13.428;2023-05-20T00:08:31;102961.75;;;12.07;63.38
46045;BME280;31781;54.094;13.428;2023-05-20T00:10:33;102966.50;;;12.05;63.49
46045;BME280;31781;54.094;13.428;2023-05-20T00:12:37;102963.09;;;12.03;62.96
46045;BME280;31781;54.094;13.428;2023-05-20T00:14:38;102969.56;;;12.02;62.83
46045;BME280;31781;54.094;13.428;2023-05-20T00:16:40;102959.66;;;12.01;62.94
46045;BME280;31781;54.094;13.428;2023-05-20T00:18:42;102949.81;;;12.00;63.55
46045;BME280;31781;54.094;13.428;2023-05-20T00:20:43;102950.66;;;12.01;63.49
46045;BME280;31781;54.094;13.428;2023-05-20T00:22:45;102948.94;;;12.00;63.37
46045;BME280;31781;54.094;13.428;2023-05-20T00:24:48;102947.06;;;12.00;63.47
46045;BME280;31781;54.094;13.428;2023-05-20T00:26:50;102955.25;;;12.00;63.87
46045;BME280;31781;54.094;13.428;2023-05-20T00:28:52;102953.53;;;11.99;63.41
46045;BME280;31781;54.094;13.428;2023-05-20T00:30:57;102946.38;;;11.98;63.16
46045;BME280;31781;54.094;13.428;2023-05-20T00:32:59;102960.19;;;11.97;62.71
46045;BME280;31781;54.094;13.428;2023-05-20T00:35:01;102959.47;;;11.95;63.40
46045;BME280;31781;54.094;13.428;2023-05-20T00:37:03;102964.06;;;11.94;63.51
46045;BME280;31781;54.094;13.428;2023-05-20T00:39:05;102969.72;;;11.93;63.18
46045;BME280;31781;54.094;13.428;2023-05-20T00:41:08;102968.00;;;11.92;63.50
46045;BME280;31781;54.094;13.428;2023-05-20T00:43:10;102960.81;;;11.91;63.32
46045;BME280;31781;54.094;13.428;2023-05-20T00:45:12;102969.00;;;11.91;64.25
46045;BME280;31781;54.094;13.428;2023-05-20T00:47:13;102976.50;;;11.89;64.06
46045;BME280;31781;54.094;13.428;2023-05-20T00:49:16;102972.06;;;11.88;63.91
46045;BME280;31781;54.094;13.428;2023-05-20T00:51:18;102972.22;;;11.86;64.11
46045;BME280;31781;54.094;13.428;2023-05-20T00:53:20;102981.44;;;11.85;64.81
46045;BME280;31781;54.094;13.428;2023-05-20T00:55:23;102966.94;;;11.85;64.27
46045;BME280;31781;54.094;13.428;2023-05-20T00:57:26;102961.63;;;11.83;64.40
46045;BME280;31781;54.094;13.428;2023-05-20T00:59:28;102964.69;;;11.80;63.94
46045;BME280;31781;54.094;13.428;2023-05-20T01:01:30;102954.81;;;11.79;64.66
46045;BME280;31781;54.094;13.428;2023-05-20T01:03:32;102955.84;;;11.78;64.46
46045;BME280;31781;54.094;13.428;2023-05-20T01:05:34;102947.81;;;11.77;64.42
46045;BME280;31781;54.094;13.428;2023-05-20T01:07:38;102954.28;;;11.76;64.22
46045;BME280;31781;54.094;13.428;2023-05-20T01:09:40;102965.38;;;11.74;64.06
46045;BME280;31781;54.094;13.428;2023-05-20T01:11:47;102962.63;;;11.74;62.66
46045;BME280;31781;54.094;13.428;2023-05-20T01:13:55;102961.78;;;11.74;63.81
46045;BME280;31781;54.094;13.428;2023-05-20T01:15:59;102959.19;;;11.72;64.30
46045;BME280;31781;54.094;13.428;2023-05-20T01:18:02;102962.06;;;11.70;63.57
46045;BME280;31781;54.094;13.428;2023-05-20T01:20:07;102957.63;;;11.69;63.56
46045;BME280;31781;54.094;13.428;2023-05-20T01:22:10;102955.06;;;11.68;64.08
46045;BME280;31781;54.094;13.428;2023-05-20T01:24:14;102961.53;;;11.67;63.39
46045;BME280;31781;54.094;13.428;2023-05-20T01:26:15;102957.78;;;11.68;64.42
46045;BME280;31781;54.094;13.428;2023-05-20T01:28:17;102957.97;;;11.66;64.01
46045;BME280;31781;54.094;13.428;2023-05-20T01:30:19;102941.75;;;11.65;64.28
46045;BME280;31781;54.094;13.428;2023-05-20T01:32:22;102958.28;;;11.63;64.90
46045;BME280;31781;54.094;13.428;2023-05-20T01:34:25;102958.44;;;11.62;64.47
46045;BME280;31781;54.094;13.428;2023-05-20T01:36:30;102963.22;;;11.60;65.01
46045;BME280;31781;54.094;13.428;2023-05-20T01:38:34;102953.47;;;11.57;64.82
46045;BME280;31781;54.094;13.428;2023-05-20T01:40:39;102958.06;;;11.57;64.67
46045;BME280;31781;54.094;13.428;2023-05-20T01:42:42;102954.66;;;11.55;64.36
46045;BME280;31781;54.094;13.428;2023-05-20T01:44:44;102961.28;;;11.52;64.75
46045;BME280;31781;54.094;13.428;2023-05-20T01:46:48;102965.88;;;11.52;64.66
46045;BME280;31781;54.094;13.428;2023-05-20T01:48:51;102958.72;;;11.51;64.59
46045;BME280;31781;54.094;13.428;2023-05-20T01:50:53;102958.03;;;11.49;64.32
46045;BME280;31781;54.094;13.428;2023-05-20T01:52:55;102960.06;;;11.47;64.20
46045;BME280;31781;54.094;13.428;2023-05-20T01:54:56;102974.00;;;11.44;64.01
46045;BME280;31781;54.094;13.428;2023-05-20T01:57:00;102971.44;;;11.42;64.72
46045;BME280;31781;54.094;13.428;2023-05-20T01:59:01;102964.44;;;11.40;64.36
46045;BME280;31781;54.094;13.428;2023-05-20T02:01:03;102963.91;;;11.36;64.69
46045;BME280;31781;54.094;13.428;2023-05-20T02:03:05;102960.50;;;11.34;64.42
46045;BME280;31781;54.094;13.428;2023-05-20T02:05:07;102964.38;;;11.32;64.28
46045;BME280;31781;54.094;13.428;2023-05-20T02:07:10;102966.44;;;11.30;64.34
46045;BME280;31781;54.094;13.428;2023-05-20T02:09:11;102963.16;;;11.26;64.87
46045;BME280;31781;54.094;13.428;2023-05-20T02:11:13;102964.16;;;11.25;64.63
46045;BME280;31781;54.094;13.428;2023-05-20T02:13:16;102967.91;;;11.24;64.35
46045;BME280;31781;54.094;13.428;2023-05-20T02:15:18;102966.22;;;11.23;64.70
46045;BME280;31781;54.094;13.428;2023-05-20T02:17:20;102966.34;;;11.21;64.94
46045;BME280;31781;54.094;13.428;2023-05-20T02:19:21;102965.69;;;11.19;64.76
46045;BME280;31781;54.094;13.428;2023-05-20T02:21:24;102964.97;;;11.17;63.71
46045;BME280;31781;54.094;13.428;2023-05-20T02:23:26;102969.56;;;11.17;64.75
46045;BME280;31781;54.094;13.428;2023-05-20T02:25:28;102963.25;;;11.16;64.27
46045;BME280;31781;54.094;13.428;2023-05-20T02:27:30;102966.16;;;11.15;63.88
46045;BME280;31781;54.094;13.428;2023-05-20T02:29:33;102968.16;;;11.13;64.12
46045;BME280;31781;54.094;13.428;2023-05-20T02:31:35;102965.75;;;11.10;64.04
46045;BME280;31781;54.094;13.428;2023-05-20T02:33:36;102962.19;;;11.09;65.03
46045;BME280;31781;54.094;13.428;2023-05-20T02:35:39;102968.81;;;11.07;65.33
46045;BME280;31781;54.094;13.428;2023-05-20T02:37:41;102959.78;;;11.06;65.32
46045;BME280;31781;54.094;13.428;2023-05-20T02:39:43;102966.22;;;11.05;64.53
46045;BME280;31781;54.094;13.428;2023-05-20T02:41:45;102961.97;;;11.03;65.41
46045;BME280;31781;54.094;13.428;2023-05-20T02:43:47;102961.09;;;11.02;65.83
46045;BME280;31781;54.094;13.428;2023-05-20T02:45:50;102960.41;;;11.00;65.81
46045;BME280;31781;54.094;13.428;2023-05-20T02:47:52;102959.69;;;10.98;65.02
46045;BME280;31781;54.094;13.428;2023-05-20T02:49:54;102964.47;;;10.96;65.63
46045;BME280;31781;54.094;13.428;2023-05-20T02:51:55;102963.75;;;10.94;65.89
46045;BME280;31781;54.094;13.428;2023-05-20T02:53:57;102972.97;;;10.93;65.92
46045;BME280;31781;54.094;13.428;2023-05-20T02:55:58;102977.53;;;10.93;64.99
46045;BME280;31781;54.094;13.428;2023-05-20T02:58:00;102973.09;;;10.92;65.81
46045;BME280;31781;54.094;13.428;2023-05-20T03:00:03;102972.25;;;10.91;65.94
46045;BME280;31781;54.094;13.428;2023-05-20T03:02:07;102974.97;;;10.91;66.01
46045;BME280;31781;54.094;13.428;2023-05-20T03:04:09;102974.28;;;10.89;66.00
46045;BME280;31781;54.094;13.428;2023-05-20T03:06:10;102976.16;;;10.89;65.66
46045;BME280;31781;54.094;13.428;2023-05-20T03:08:12;102972.56;;;10.88;65.86
46045;BME280;31781;54.094;13.428;2023-05-20T03:10:14;102966.44;;;10.86;66.20
46045;BME280;31781;54.094;13.428;2023-05-20T03:12:16;102970.84;;;10.87;65.75
46045;BME280;31781;54.094;13.428;2023-05-20T03:14:18;102974.44;;;10.88;66.05
46045;BME280;31781;54.094;13.428;2023-05-20T03:16:19;102977.16;;;10.88;66.08
46045;BME280;31781;54.094;13.428;2023-05-20T03:18:23;102977.16;;;10.88;66.26
46045;BME280;31781;54.094;13.428;2023-05-20T03:20:24;102973.56;;;10.87;66.61
46045;BME280;31781;54.094;13.428;2023-05-20T03:22:26;102973.44;;;10.89;67.63
46045;BME280;31781;54.094;13.428;2023-05-20T03:24:28;102977.00;;;10.89;67.13
46045;BME280;31781;54.094;13.428;2023-05-20T03:26:29;102979.72;;;10.89;67.15
46045;BME280;31781;54.094;13.428;2023-05-20T03:28:31;102975.81;;;10.92;67.96
46045;BME280;31781;54.094;13.428;2023-05-20T03:30:33;102972.97;;;10.93;67.81
46045;BME280;31781;54.094;13.428;2023-05-20T03:32:35;102965.47;;;10.95;68.17
46045;BME280;31781;54.094;13.428;2023-05-20T03:34:38;102976.03;;;10.98;68.10
46045;BME280;31781;54.094;13.428;2023-05-20T03:36:40;102974.03;;;11.00;67.79
46045;BME280;31781;54.094;13.428;2023-05-20T03:38:41;102970.13;;;11.03;67.89
46045;BME280;31781;54.094;13.428;2023-05-20T03:40:43;102974.41;;;11.05;68.32
46045;BME280;31781;54.094;13.428;2023-05-20T03:42:44;102977.84;;;11.07;68.47
46045;BME280;31781;54.094;13.428;2023-05-20T03:44:46;102976.50;;;11.11;68.10
46045;BME280;31781;54.094;13.428;2023-05-20T03:46:49;102974.31;;;11.15;68.51
46045;BME280;31781;54.094;13.428;2023-05-20T03:48:51;102978.44;;;11.19;68.46
46045;BME280;31781;54.094;13.428;2023-05-20T03:50:54;102983.56;;;11.22;69.41
46045;BME280;31781;54.094;13.428;2023-05-20T03:52:56;102990.41;;;11.26;69.09
46045;BME280;31781;54.094;13.428;2023-05-20T03:54:57;102974.59;;;11.30;69.32
46045;BME280;31781;54.094;13.428;2023-05-20T03:56:59;102979.59;;;11.34;69.33
46045;BME280;31781;54.094;13.428;2023-05-20T03:59:01;102980.94;;;11.38;69.33
46045;BME280;31781;54.094;13.428;2023-05-20T04:01:03;102978.59;;;11.43;69.72
46045;BME280;31781;54.094;13.428;2023-05-20T04:03:06;102970.97;;;11.47;69.73
46045;BME280;31781;54.094;13.428;2023-05-20T04:05:08;102977.66;;;11.52;69.64
46045;BME280;31781;54.094;13.428;2023-05-20T04:07:11;102972.56;;;11.57;70.12
46045;BME280;31781;54.094;13.428;2023-05-20T04:09:13;102974.81;;;11.62;70.37
46045;BME280;31781;54.094;13.428;2023-05-20T04:11:14;102968.00;;;11.66;69.77
46045;BME280;31781;54.094;13.428;2023-05-20T04:13:16;102961.06;;;11.71;69.78
46045;BME280;31781;54.094;13.428;2023-05-20T04:15:18;102970.50;;;11.77;69.39
46045;BME280;31781;54.094;13.428;2023-05-20T04:17:20;102967.28;;;11.82;68.98
46045;BME280;31781;54.094;13.428;2023-05-20T04:19:22;102964.03;;;11.86;69.31
46045;BME280;31781;54.094;13.428;2023-05-20T04:21:24;102973.59;;;11.90;69.36
46045;BME280;31781;54.094;13.428;2023-05-20T04:23:27;102973.13;;;11.95;68.96
46045;BME280;31781;54.094;13.428;2023-05-20T04:25:29;102967.19;;;11.99;68.72
46045;BME280;31781;54.094;13.428;2023-05-20T04:27:31;102972.16;;;12.04;68.48
46045;BME280;31781;54.094;13.428;2023-05-20T04:29:32;102965.34;;;12.08;68.32
46045;BME280;31781;54.094;13.428;2023-05-20T04:31:34;102962.09;;;12.12;68.74
46045;BME280;31781;54.094;13.428;2023-05-20T04:33:36;102970.81;;;12.16;68.49
46045;BME280;31781;54.094;13.428;2023-05-20T04:35:38;102968.59;;;12.19;68.75
46045;BME280;31781;54.094;13.428;2023-05-20T04:37:40;102971.69;;;12.25;68.60
46045;BME280;31781;54.094;13.428;2023-05-20T04:39:43;102976.66;;;12.29;68.03
46045;BME280;31781;54.094;13.428;2023-05-20T04:41:45;102974.47;;;12.33;68.40
46045;BME280;31781;54.094;13.428;2023-05-20T04:43:46;102968.66;;;12.36;68.62
46045;BME280;31781;54.094;13.428;2023-05-20T04:45:48;102965.44;;;12.40;68.16
46045;BME280;31781;54.094;13.428;2023-05-20T04:47:50;102967.66;;;12.45;67.56
46045;BME280;31781;54.094;13.428;2023-05-20T04:49:52;102968.19;;;12.48;67.74
46045;BME280;31781;54.094;13.428;2023-05-20T04:51:54;102965.78;;;12.53;67.29
46045;BME280;31781;54.094;13.428;2023-05-20T04:53:56;102969.03;;;12.57;67.49
46045;BME280;31781;54.094;13.428;2023-05-20T04:55:59;102966.00;;;12.60;66.84
46045;BME280;31781;54.094;13.428;2023-05-20T04:58:00;102966.31;;;12.65;67.45
46045;BME280;31781;54.094;13.428;2023-05-20T05:00:03;102972.31;;;12.68;67.44
46045;BME280;31781;54.094;13.428;2023-05-20T05:02:05;102970.09;;;12.72;66.85
46045;BME280;31781;54.094;13.428;2023-05-20T05:04:07;102967.72;;;12.77;66.45
46045;BME280;31781;54.094;13.428;2023-05-20T05:06:09;102971.81;;;12.81;65.90
46045;BME280;31781;54.094;13.428;2023-05-20T05:08:10;102962.25;;;12.85;66.62
46045;BME280;31781;54.094;13.428;2023-05-20T05:10:12;102971.81;;;12.89;66.73
46045;BME280;31781;54.094;13.428;2023-05-20T05:12:15;102968.75;;;12.92;66.17
46045;BME280;31781;54.094;13.428;2023-05-20T05:14:17;102973.72;;;12.97;66.36
46045;BME280;31781;54.094;13.428;2023-05-20T05:16:19;102973.38;;;13.00;66.12
46045;BME280;31781;54.094;13.428;2023-05-20T05:18:21;102976.59;;;13.03;65.82
46045;BME280;31781;54.094;13.428;2023-05-20T05:20:23;102972.31;;;13.09;65.96
46045;BME280;31781;54.094;13.428;2023-05-20T05:22:25;102975.78;;;13.11;66.03
46045;BME280;31781;54.094;13.428;2023-05-20T05:24:26;102980.72;;;13.15;66.18
46045;BME280;31781;54.094;13.428;2023-05-20T05:26:28;102977.66;;;13.19;65.88
46045;BME280;31781;54.094;13.428;2023-05-20T05:28:31;102980.03;;;13.22;65.85
46045;BME280;31781;54.094;13.428;2023-05-20T05:30:33;102983.28;;;13.25;65.80
46045;BME280;31781;54.094;13.428;2023-05-20T05:32:35;102982.78;;;13.30;66.08
46045;BME280;31781;54.094;13.428;2023-05-20T05:34:38;102981.41;;;13.34;65.48
46045;BME280;31781;54.094;13.428;2023-05-20T05:36:40;102986.31;;;13.38;65.67
46045;BME280;31781;54.094;13.428;2023-05-20T05:38:41;102975.91;;;13.42;65.63
46045;BME280;31781;54.094;13.428;2023-05-20T05:40:43;102973.50;;;13.47;65.36
46045;BME280;31781;54.094;13.428;2023-05-20T05:42:45;102975.88;;;13.50;64.55
46045;BME280;31781;54.094;13.428;2023-05-20T05:44:48;102980.00;;;13.54;64.95
46045;BME280;31781;54.094;13.428;2023-05-20T05:46:50;102972.28;;;13.57;64.92
46045;BME280;31781;54.094;13.428;2023-05-20T05:48:52;102979.13;;;13.61;64.73
46045;BME280;31781;54.094;13.428;2023-05-20T05:50:54;102979.63;;;13.65;64.91
46045;BME280;31781;54.094;13.428;2023-05-20T05:52:55;102977.03;;;13.72;65.02
46045;BME280;31781;54.094;13.428;2023-05-20T05:54:57;102975.50;;;13.77;65.18
46045;BME280;31781;54.094;13.428;2023-05-20T05:56:59;102976.66;;;13.83;64.45
46045;BME280;31781;54.094;13.428;2023-05-20T05:59:01;102969.63;;;13.88;63.98
46045;BME280;31781;54.094;13.428;2023-05-20T06:01:06;102975.41;;;13.93;64.01
46045;BME280;31781;54.094;13.428;2023-05-20T06:03:08;102966.66;;;13.98;64.09
46045;BME280;31781;54.094;13.428;2023-05-20T06:05:10;102966.16;;;14.02;64.19
46045;BME280;31781;54.094;13.428;2023-05-20T06:07:12;102969.03;;;14.09;63.97
46045;BME280;31781;54.094;13.428;2023-05-20T06:09:13;102970.22;;;14.14;63.64
46045;BME280;31781;54.094;13.428;2023-05-20T06:11:15;102973.25;;;14.20;62.65
46045;BME280;31781;54.094;13.428;2023-05-20T06:13:19;102980.06;;;14.24;62.42
46045;BME280;31781;54.094;13.428;2023-05-20T06:15:21;102978.69;;;14.28;62.73
46045;BME280;31781;54.094;13.428;2023-05-20T06:17:24;102977.28;;;14.32;62.29
46045;BME280;31781;54.094;13.428;2023-05-20T06:19:26;102976.28;;;14.33;62.41
46045;BME280;31781;54.094;13.428;2023-05-20T06:21:28;102979.34;;;14.38;62.33
46045;BME280;31781;54.094;13.428;2023-05-20T06:23:30;102977.09;;;14.41;62.37
46045;BME280;31781;54.094;13.428;2023-05-20T06:25:32;102975.69;;;14.45;61.99
46045;BME280;31781;54.094;13.428;2023-05-20T06:27:34;102976.03;;;14.50;62.06
46045;BME280;31781;54.094;13.428;2023-05-20T06:29:35;102979.25;;;14.54;62.36
46045;BME280;31781;54.094;13.428;2023-05-20T06:31:37;102986.06;;;14.58;61.79
46045;BME280;31781;54.094;13.428;2023-05-20T06:33:41;102979.00;;;14.63;60.89
46045;BME280;31781;54.094;13.428;2023-05-20T06:35:42;102976.75;;;14.67;61.85
46045;BME280;31781;54.094;13.428;2023-05-20T06:37:44;102978.94;;;14.72;61.56
46045;BME280;31781;54.094;13.428;2023-05-20T06:39:47;102973.09;;;14.75;60.76
46045;BME280;31781;54.094;13.428;2023-05-20T06:41:48;102971.03;;;14.77;60.84
46045;BME280;31781;54.094;13.428;2023-05-20T06:43:50;102967.06;;;14.79;61.08
46045;BME280;31781;54.094;13.428;2023-05-20T06:45:53;102968.78;;;14.80;61.07
46045;BME280;31781;54.094;13.428;2023-05-20T06:47:55;102971.00;;;14.85;60.23
46045;BME280;31781;54.094;13.428;2023-05-20T06:50:01;102969.59;;;14.89;60.86
46045;BME280;31781;54.094;13.428;2023-05-20T06:52:03;102967.34;;;14.92;60.31
46045;BME280;31781;54.094;13.428;2023-05-20T06:54:05;102963.38;;;14.95;59.77
46045;BME280;31781;54.094;13.428;2023-05-20T06:56:07;102960.25;;;14.98;59.85
46045;BME280;31781;54.094;13.428;2023-05-20T06:58:12;102963.47;;;15.01;59.88
46045;BME280;31781;54.094;13.428;2023-05-20T07:00:13;102957.63;;;15.04;59.90
46045;BME280;31781;54.094;13.428;2023-05-20T07:02:15;102962.75;;;15.07;59.94
46045;BME280;31781;54.094;13.428;2023-05-20T07:04:17;102954.16;;;15.10;59.93
46045;BME280;31781;54.094;13.428;2023-05-20T07:06:21;102955.28;;;15.16;59.77
46045;BME280;31781;54.094;13.428;2023-05-20T07:08:23;102946.50;;;15.21;59.17
46045;BME280;31781;54.094;13.428;2023-05-20T07:10:25;102942.34;;;15.25;58.55
46045;BME280;31781;54.094;13.428;2023-05-20T07:12:27;102947.09;;;15.31;58.79
46045;BME280;31781;54.094;13.428;2023-05-20T07:14:29;102941.22;;;15.34;58.96
46045;BME280;31781;54.094;13.428;2023-05-20T07:16:30;102943.41;;;15.38;59.31
46045;BME280;31781;54.094;13.428;2023-05-20T07:18:32;102944.56;;;15.44;58.46
46045;BME280;31781;54.094;13.428;2023-05-20T07:20:34;102939.19;;;15.50;58.62
46045;BME280;31781;54.094;13.428;2023-05-20T07:22:37;102934.00;;;15.55;58.32
46045;BME280;31781;54.094;13.428;2023-05-20T07:24:39;102944.41;;;15.60;58.09
46045;BME280;31781;54.094;13.428;2023-05-20T07:26:41;102946.19;;;15.68;57.28
46045;BME280;31781;54.094;13.428;2023-05-20T07:28:43;102942.88;;;15.72;57.61
46045;BME280;31781;54.094;13.428;2023-05-20T07:30:45;102939.59;;;15.77;56.88
46045;BME280;31781;54.094;13.428;2023-05-20T07:32:48;102936.28;;;15.81;56.43
46045;BME280;31781;54.094;13.428;2023-05-20T07:34:50;102936.75;;;15.85;56.81
46045;BME280;31781;54.094;13.428;2023-05-20T07:36:52;102937.22;;;15.88;56.19
46045;BME280;31781;54.094;13.428;2023-05-20T07:38:57;102940.22;;;15.93;56.62
46045;BME280;31781;54.094;13.428;2023-05-20T07:41:06;102941.53;;;15.97;56.24
46045;BME280;31781;54.094;13.428;2023-05-20T07:43:09;102941.16;;;16.00;55.46
46045;BME280;31781;54.094;13.428;2023-05-20T07:45:10;102935.94;;;16.05;56.07
46045;BME280;31781;54.094;13.428;2023-05-20T07:47:13;102929.03;;;16.10;55.54
46045;BME280;31781;54.094;13.428;2023-05-20T07:49:15;102928.25;;;16.16;55.65
46045;BME280;31781;54.094;13.428;2023-05-20T07:51:17;102930.41;;;16.20;55.96
46045;BME280;31781;54.094;13.428;2023-05-20T07:53:19;102935.34;;;16.25;55.51
46045;BME280;31781;54.094;13.428;2023-05-20T07:55:23;102937.31;;;16.31;55.28
46045;BME280;31781;54.094;13.428;2023-05-20T07:57:25;102931.22;;;16.35;55.04
46045;BME280;31781;54.094;13.428;2023-05-20T07:59:27;102925.16;;;16.40;54.83
46045;BME280;31781;54.094;13.428;2023-05-20T08:01:29;102922.03;;;16.43;55.55
46045;BME280;31781;54.094;13.428;2023-05-20T08:03:31;102923.53;;;16.45;54.93
46045;BME280;31781;54.094;13.428;2023-05-20T08:05:36;102928.25;;;16.51;54.93
46045;BME280;31781;54.094;13.428;2023-05-20T08:07:38;102930.44;;;16.56;54.45
46045;BME280;31781;54.094;13.428;2023-05-20T08:09:40;102925.84;;;16.63;54.30
46045;BME280;31781;54.094;13.428;2023-05-20T08:11:43;102926.31;;;16.67;54.39
46045;BME280;31781;54.094;13.428;2023-05-20T08:13:47;102925.72;;;16.71;53.95
46045;BME280;31781;54.094;13.428;2023-05-20T08:15:51;102934.88;;;16.78;54.55
46045;BME280;31781;54.094;13.428;2023-05-20T08:17:53;102931.75;;;16.81;53.55
46045;BME280;31781;54.094;13.428;2023-05-20T08:19:55;102923.97;;;16.85;53.50
46045;BME280;31781;54.094;13.428;2023-05-20T08:21:57;102929.06;;;16.88;53.95
46045;BME280;31781;54.094;13.428;2023-05-20T08:23:58;102926.38;;;16.94;54.21
46045;BME280;31781;54.094;13.428;2023-05-20T08:26:01;102930.19;;;17.00;54.03
46045;BME280;31781;54.094;13.428;2023-05-20T08:28:04;102919.28;;;17.07;53.69
46045;BME280;31781;54.094;13.428;2023-05-20T08:30:07;102916.75;;;17.12;53.73
46045;BME280;31781;54.094;13.428;2023-05-20T08:32:09;102917.66;;;17.19;53.83
46045;BME280;31781;54.094;13.428;2023-05-20T08:34:11;102927.88;;;17.25;53.59
46045;BME280;31781;54.094;13.428;2023-05-20T08:36:13;102925.38;;;17.30;52.72
46045;BME280;31781;54.094;13.428;2023-05-20T08:38:15;102928.19;;;17.36;53.19
46045;BME280;31781;54.094;13.428;2023-05-20T08:40:16;102927.56;;;17.41;52.62
46045;BME280;31781;54.094;13.428;2023-05-20T08:42:20;102926.97;;;17.45;52.30
46045;BME280;31781;54.094;13.428;2023-05-20T08:44:25;102918.97;;;17.50;52.09
46045;BME280;31781;54.094;13.428;2023-05-20T08:46:29;102916.44;;;17.56;52.84
46045;BME280;31781;54.094;13.428;2023-05-20T08:48:32;102917.34;;;17.63;52.24
46045;BME280;31781;54.094;13.428;2023-05-20T08:50:34;102916.75;;;17.67;52.26
46045;BME280;31781;54.094;13.428;2023-05-20T08:52:37;102916.16;;;17.72;52.40
46045;BME280;31781;54.094;13.428;2023-05-20T08:54:44;102917.25;;;17.77;52.01
46045;BME280;31781;54.094;13.428;2023-05-20T08:56:46;102910.06;;;17.83;51.18
46045;BME280;31781;54.094;13.428;2023-05-20T08:58:48;102905.00;;;17.86;51.71
46045;BME280;31781;54.094;13.428;2023-05-20T09:00:51;102899.91;;;17.90;52.03
46045;BME280;31781;54.094;13.428;2023-05-20T09:02:54;102903.97;;;17.94;51.37
46045;BME280;31781;54.094;13.428;2023-05-20T09:04:58;102908.00;;;17.98;52.28
46045;BME280;31781;54.094;13.428;2023-05-20T09:07:00;102904.84;;;18.01;52.64
46045;BME280;31781;54.094;13.428;2023-05-20T09:09:02;102907.84;;;18.06;53.16
46045;BME280;31781;54.094;13.428;2023-05-20T09:11:03;102903.41;;;18.12;52.51
46045;BME280;31781;54.094;13.428;2023-05-20T09:13:06;102901.50;;;18.19;52.46
46045;BME280;31781;54.094;13.428;2023-05-20T09:15:08;102901.56;;;18.25;51.89
46045;BME280;31781;54.094;13.428;2023-05-20T09:17:12;102904.31;;;18.32;52.05
46045;BME280;31781;54.094;13.428;2023-05-20T09:19:15;102907.50;;;18.35;50.82
46045;BME280;31781;54.094;13.428;2023-05-20T09:21:17;102912.59;;;18.38;51.10
46045;BME280;31781;54.094;13.428;2023-05-20T09:23:27;102914.06;;;18.41;51.54
46045;BME280;31781;54.094;13.428;2023-05-20T09:25:29;102908.13;;;18.44;51.85
46045;BME280;31781;54.094;13.428;2023-05-20T09:27:31;102907.94;;;18.45;51.27
46045;BME280;31781;54.094;13.428;2023-05-20T09:29:33;102906.66;;;18.48;50.94
46045;BME280;31781;54.094;13.428;2023-05-20T09:31:35;102911.97;;;18.49;50.95
46045;BME280;31781;54.094;13.428;2023-05-20T09:33:40;102911.81;;;18.51;50.76
46045;BME280;31781;54.094;13.428;2023-05-20T09:35:42;102913.50;;;18.52;50.41
46045;BME280;31781;54.094;13.428;2023-05-20T09:37:45;102906.94;;;18.53;50.16
46045;BME280;31781;54.094;13.428;2023-05-20T09:39:54;102906.06;;;18.53;50.12
46045;BME280;31781;54.094;13.428;2023-05-20T09:42:03;102905.88;;;18.54;49.89
46045;BME280;31781;54.094;13.428;2023-05-20T09:44:06;102902.47;;;18.52;48.82
46045;BME280;31781;54.094;13.428;2023-05-20T09:46:08;102904.19;;;18.53;48.71
46045;BME280;31781;54.094;13.428;2023-05-20T09:48:11;102903.13;;;18.54;49.04
46045;BME280;31781;54.094;13.428;2023-05-20T09:50:16;102904.59;;;18.57;48.89
46045;BME280;31781;54.094;13.428;2023-05-20T09:52:18;102897.63;;;18.61;48.76
46045;BME280;31781;54.094;13.428;2023-05-20T09:54:22;102893.38;;;18.65;48.64
46045;BME280;31781;54.094;13.428;2023-05-20T09:56:24;102904.41;;;18.71;48.15
46045;BME280;31781;54.094;13.428;2023-05-20T09:58:28;102899.56;;;18.73;48.42
46045;BME280;31781;54.094;13.428;2023-05-20T10:00:30;102896.38;;;18.76;48.29
46045;BME280;31781;54.094;13.428;2023-05-20T10:02:32;102905.06;;;18.80;48.08
46045;BME280;31781;54.094;13.428;2023-05-20T10:04:36;102907.41;;;18.83;47.48
46045;BME280;31781;54.094;13.428;2023-05-20T10:09:23;102895.28;;;18.97;48.08
46045;BME280;31781;54.094;13.428;2023-05-20T10:11:44;102896.13;;;19.04;48.17
46045;BME280;31781;54.094;13.428;2023-05-20T10:13:58;102893.81;;;19.08;47.76
46045;BME280;31781;54.094;13.428;2023-05-20T10:16:08;102890.22;;;19.14;47.23
46045;BME280;31781;54.094;13.428;2023-05-20T10:18:35;102899.50;;;19.26;47.44
46045;BME280;31781;54.094;13.428;2023-05-20T10:20:45;102889.97;;;19.35;47.97
46045;BME280;31781;54.094;13.428;2023-05-20T10:22:54;102886.16;;;19.42;47.51
46045;BME280;31781;54.094;13.428;2023-05-20T10:25:05;102888.00;;;19.55;47.87
46045;BME280;31781;54.094;13.428;2023-05-20T10:27:08;102886.06;;;19.62;46.81
46045;BME280;31781;54.094;13.428;2023-05-20T10:29:14;102877.56;;;19.70;47.31
46045;BME280;31781;54.094;13.428;2023-05-20T10:31:17;102874.56;;;19.78;46.39
46045;BME280;31781;54.094;13.428;2023-05-20T10:33:20;102879.19;;;19.84;45.76
46045;BME280;31781;54.094;13.428;2023-05-20T10:35:23;102875.78;;;19.89;46.34